PWSweather.com
Personal Weather Stations
Station Observations
ROSEGARDEN
Rose Garden, Brentwood, CA 94513

Rose GardenBrentwood, CA 94513

Lat: 37.967503, Lon: -121.721004

Elevation: 85

Station Type: La Crosse 2813

High Low Average
Temperature 80.6°F27.0°C 47.9°F8.8°C 54.0°F12.2°C
Dew Point 63.7°F17.6°C 34.5°F1.4°C 45.0°F7.2°C
Winds 0.8 mph 1.3 kmh 0.4 mph 0.6 kmh 1.0 mph WNW1.6 kmh WNW
Wind Gusts 5.4 mph8.7 kmh 0.7 mph1.1 kmh 3.0 mph4.8 kmh
Humidity 84% 33% 73%
Pressure 30.29 in1025.7 mb 30.12 in1020.0 mb -
Precipitation 0.00 in0.0 mm - -
Hour Temp Dew Point Humidity Winds Wind Gusts Pressure Precip Precip Rate Daily Precip Total
12:00 AM 53.3°F11.8°C 43.7°F6.5°C 70% 0.4 mph WNW0.6 kmh WNW 0.4 mph0.6 kmh 30.25 in1024.4 mb 0.00 in0.0 mm 0.00 in/hr0.0 mm/hr 0.00 in0.0 mm
12:05 AM 53.3°F11.8°C 44.1°F6.7°C 71% 0.4 mph WNW0.6 kmh WNW 0.4 mph0.6 kmh 30.26 in1024.7 mb 0.00 in0.0 mm 0.00 in/hr0.0 mm/hr 0.00 in0.0 mm
12:10 AM 53.1°F11.7°C 44.0°F6.7°C 71% 0.4 mph WNW0.6 kmh WNW 0.4 mph0.6 kmh 30.26 in1024.7 mb 0.00 in0.0 mm 0.00 in/hr0.0 mm/hr 0.00 in0.0 mm
12:15 AM 53.1°F11.7°C 44.0°F6.7°C 71% 0.4 mph WNW0.6 kmh WNW 0.4 mph0.6 kmh 30.26 in1024.7 mb 0.00 in0.0 mm 0.00 in/hr0.0 mm/hr 0.00 in0.0 mm
12:20 AM 52.9°F11.6°C 43.8°F6.6°C 71% 0.4 mph WNW0.6 kmh WNW 0.4 mph0.6 kmh 30.26 in1024.7 mb 0.00 in0.0 mm 0.00 in/hr0.0 mm/hr 0.00 in0.0 mm
12:25 AM 52.9°F11.6°C 43.8°F6.6°C 71% 0.4 mph WNW0.6 kmh WNW 0.7 mph1.1 kmh 30.26 in1024.7 mb 0.00 in0.0 mm 0.00 in/hr0.0 mm/hr 0.00 in0.0 mm
12:30 AM 52.7°F11.5°C 43.7°F6.5°C 71% 0.4 mph WNW0.6 kmh WNW 0.9 mph1.4 kmh 30.26 in1024.7 mb 0.00 in0.0 mm 0.00 in/hr0.0 mm/hr 0.00 in0.0 mm
12:35 AM 52.6°F11.4°C 43.5°F6.4°C 71% 0.4 mph W0.6 kmh W 1.1 mph1.8 kmh 30.26 in1024.7 mb 0.00 in0.0 mm 0.00 in/hr0.0 mm/hr 0.00 in0.0 mm
12:40 AM 52.6°F11.4°C 43.5°F6.4°C 71% 0.4 mph W0.6 kmh W 1.1 mph1.8 kmh 30.26 in1024.7 mb 0.00 in0.0 mm 0.00 in/hr0.0 mm/hr 0.00 in0.0 mm
12:45 AM 52.6°F11.4°C 43.8°F6.6°C 72% 0.4 mph WNW0.6 kmh WNW 1.3 mph2.1 kmh 30.27 in1025.1 mb 0.00 in0.0 mm 0.00 in/hr0.0 mm/hr 0.00 in0.0 mm
12:50 AM 52.7°F11.5°C 44.0°F6.7°C 72% 0.4 mph NW0.6 kmh NW 1.3 mph2.1 kmh 30.27 in1025.1 mb 0.00 in0.0 mm 0.00 in/hr0.0 mm/hr 0.00 in0.0 mm
12:55 AM 52.7°F11.5°C 44.0°F6.7°C 72% 0.5 mph NW0.8 kmh NW 1.6 mph2.6 kmh 30.27 in1025.1 mb 0.00 in0.0 mm 0.00 in/hr0.0 mm/hr 0.00 in0.0 mm
01:00 AM 52.7°F11.5°C 44.0°F6.7°C 72% 0.5 mph NW0.8 kmh NW 1.6 mph2.6 kmh 30.27 in1025.1 mb 0.00 in0.0 mm 0.00 in/hr0.0 mm/hr 0.00 in0.0 mm
01:05 AM 52.7°F11.5°C 44.0°F6.7°C 72% 0.4 mph WNW0.6 kmh WNW 1.6 mph2.6 kmh 30.28 in1025.4 mb 0.00 in0.0 mm 0.00 in/hr0.0 mm/hr 0.00 in0.0 mm
01:10 AM 52.7°F11.5°C 44.0°F6.7°C 72% 0.4 mph WNW0.6 kmh WNW 1.3 mph2.1 kmh 30.28 in1025.4 mb 0.00 in0.0 mm 0.00 in/hr0.0 mm/hr 0.00 in0.0 mm
01:15 AM 52.6°F11.4°C 43.8°F6.6°C 72% 0.6 mph NW1.0 kmh NW 2.9 mph4.7 kmh 30.28 in1025.4 mb 0.00 in0.0 mm 0.00 in/hr0.0 mm/hr 0.00 in0.0 mm
01:20 AM 52.6°F11.4°C 43.8°F6.6°C 72% 0.5 mph NW0.8 kmh NW 2.9 mph4.7 kmh 30.28 in1025.4 mb 0.00 in0.0 mm 0.00 in/hr0.0 mm/hr 0.00 in0.0 mm
01:25 AM 52.2°F11.2°C 43.5°F6.4°C 72% 0.4 mph WNW0.6 kmh WNW 1.6 mph2.6 kmh 30.28 in1025.4 mb 0.00 in0.0 mm 0.00 in/hr0.0 mm/hr 0.00 in0.0 mm
01:30 AM 52.2°F11.2°C 44.2°F6.8°C 74% 0.4 mph WNW0.6 kmh WNW 1.1 mph1.8 kmh 30.28 in1025.4 mb 0.00 in0.0 mm 0.00 in/hr0.0 mm/hr 0.00 in0.0 mm
01:35 AM 51.8°F11.0°C 43.8°F6.6°C 74% 0.4 mph WNW0.6 kmh WNW 1.3 mph2.1 kmh 30.27 in1025.1 mb 0.00 in0.0 mm 0.00 in/hr0.0 mm/hr 0.00 in0.0 mm
01:40 AM 51.7°F10.9°C 43.7°F6.5°C 74% 0.4 mph WNW0.6 kmh WNW 1.3 mph2.1 kmh 30.27 in1025.1 mb 0.00 in0.0 mm 0.00 in/hr0.0 mm/hr 0.00 in0.0 mm
01:45 AM 51.5°F10.8°C 43.5°F6.4°C 74% 0.4 mph WNW0.6 kmh WNW 1.3 mph2.1 kmh 30.27 in1025.1 mb 0.00 in0.0 mm 0.00 in/hr0.0 mm/hr 0.00 in0.0 mm
01:50 AM 51.3°F10.7°C 43.3°F6.3°C 74% 0.5 mph W0.8 kmh W 1.8 mph2.9 kmh 30.27 in1025.1 mb 0.00 in0.0 mm 0.00 in/hr0.0 mm/hr 0.00 in0.0 mm
01:55 AM 50.9°F10.5°C 43.3°F6.3°C 75% 0.5 mph W0.8 kmh W 1.8 mph2.9 kmh 30.27 in1025.1 mb 0.00 in0.0 mm 0.00 in/hr0.0 mm/hr 0.00 in0.0 mm
02:00 AM 50.8°F10.4°C 43.1°F6.2°C 75% 0.5 mph W0.8 kmh W 1.8 mph2.9 kmh 30.26 in1024.7 mb 0.00 in0.0 mm 0.00 in/hr0.0 mm/hr 0.00 in0.0 mm
02:05 AM 50.8°F10.4°C 43.1°F6.2°C 75% 0.5 mph W0.8 kmh W 1.8 mph2.9 kmh 30.26 in1024.7 mb 0.00 in0.0 mm 0.00 in/hr0.0 mm/hr 0.00 in0.0 mm
02:10 AM 50.6°F10.3°C 42.9°F6.1°C 75% 0.4 mph WNW0.6 kmh WNW 1.6 mph2.6 kmh 30.26 in1024.7 mb 0.00 in0.0 mm 0.00 in/hr0.0 mm/hr 0.00 in0.0 mm
02:15 AM 50.6°F10.3°C 42.9°F6.1°C 75% 0.5 mph W0.8 kmh W 1.3 mph2.1 kmh 30.26 in1024.7 mb 0.00 in0.0 mm 0.00 in/hr0.0 mm/hr 0.00 in0.0 mm
02:20 AM 50.6°F10.3°C 42.9°F6.1°C 75% 0.5 mph W0.8 kmh W 1.3 mph2.1 kmh 30.26 in1024.7 mb 0.00 in0.0 mm 0.00 in/hr0.0 mm/hr 0.00 in0.0 mm
02:25 AM 50.4°F10.2°C 42.8°F6.0°C 75% 0.4 mph WNW0.6 kmh WNW 1.3 mph2.1 kmh 30.26 in1024.7 mb 0.00 in0.0 mm 0.00 in/hr0.0 mm/hr 0.00 in0.0 mm
02:30 AM 50.4°F10.2°C 42.8°F6.0°C 75% 0.5 mph W0.8 kmh W 1.6 mph2.6 kmh 30.26 in1024.7 mb 0.00 in0.0 mm 0.00 in/hr0.0 mm/hr 0.00 in0.0 mm
02:36 AM 50.2°F10.1°C 42.6°F5.9°C 75% 0.8 mph W1.3 kmh W 3.4 mph5.5 kmh 30.26 in1024.7 mb 0.00 in0.0 mm 0.00 in/hr0.0 mm/hr 0.00 in0.0 mm
02:41 AM 50.2°F10.1°C 42.9°F6.1°C 76% 0.6 mph W1.0 kmh W 3.4 mph5.5 kmh 30.26 in1024.7 mb 0.00 in0.0 mm 0.00 in/hr0.0 mm/hr 0.00 in0.0 mm
02:46 AM 50.2°F10.1°C 42.9°F6.1°C 76% 0.7 mph W1.1 kmh W 3.6 mph5.8 kmh 30.26 in1024.7 mb 0.00 in0.0 mm 0.00 in/hr0.0 mm/hr 0.00 in0.0 mm
02:51 AM 50.2°F10.1°C 43.3°F6.3°C 77% 0.5 mph WNW0.8 kmh WNW 3.6 mph5.8 kmh 30.26 in1024.7 mb 0.00 in0.0 mm 0.00 in/hr0.0 mm/hr 0.00 in0.0 mm
02:56 AM 50.2°F10.1°C 43.6°F6.4°C 78% 0.7 mph W1.1 kmh W 2.9 mph4.7 kmh 30.26 in1024.7 mb 0.00 in0.0 mm 0.00 in/hr0.0 mm/hr 0.00 in0.0 mm
03:01 AM 50.4°F10.2°C 43.7°F6.5°C 78% 0.5 mph W0.8 kmh W 2.7 mph4.3 kmh 30.26 in1024.7 mb 0.00 in0.0 mm 0.00 in/hr0.0 mm/hr 0.00 in0.0 mm
03:06 AM 50.4°F10.2°C 43.7°F6.5°C 78% 0.6 mph WNW1.0 kmh WNW 2.5 mph4.0 kmh 30.26 in1024.7 mb 0.00 in0.0 mm 0.00 in/hr0.0 mm/hr 0.00 in0.0 mm
03:11 AM 50.8°F10.4°C 44.8°F7.1°C 80% 0.7 mph WNW1.1 kmh WNW 2.9 mph4.7 kmh 30.26 in1024.7 mb 0.00 in0.0 mm 0.00 in/hr0.0 mm/hr 0.00 in0.0 mm
03:16 AM 51.5°F10.8°C 45.5°F7.5°C 80% 0.6 mph WNW1.0 kmh WNW 2.9 mph4.7 kmh 30.26 in1024.7 mb 0.00 in0.0 mm 0.00 in/hr0.0 mm/hr 0.00 in0.0 mm
03:21 AM 52.2°F11.2°C 45.9°F7.7°C 79% 0.6 mph WNW1.0 kmh WNW 2.5 mph4.0 kmh 30.26 in1024.7 mb 0.00 in0.0 mm 0.00 in/hr0.0 mm/hr 0.00 in0.0 mm
03:26 AM 52.6°F11.4°C 45.9°F7.7°C 78% 0.4 mph WNW0.6 kmh WNW 2.5 mph4.0 kmh 30.26 in1024.7 mb 0.00 in0.0 mm 0.00 in/hr0.0 mm/hr 0.00 in0.0 mm
03:31 AM 52.9°F11.6°C 46.3°F7.9°C 78% 0.5 mph WNW0.8 kmh WNW 2.0 mph3.2 kmh 30.26 in1024.7 mb 0.00 in0.0 mm 0.00 in/hr0.0 mm/hr 0.00 in0.0 mm
03:36 AM 52.7°F11.5°C 45.7°F7.6°C 77% 0.6 mph WNW1.0 kmh WNW 2.5 mph4.0 kmh 30.26 in1024.7 mb 0.00 in0.0 mm 0.00 in/hr0.0 mm/hr 0.00 in0.0 mm
03:41 AM 52.6°F11.4°C 45.2°F7.3°C 76% 0.4 mph NW0.6 kmh NW 2.5 mph4.0 kmh 30.26 in1024.7 mb 0.00 in0.0 mm 0.00 in/hr0.0 mm/hr 0.00 in0.0 mm
03:46 AM 52.0°F11.1°C 44.7°F7.1°C 76% 0.5 mph NW0.8 kmh NW 4.3 mph6.9 kmh 30.26 in1024.7 mb 0.00 in0.0 mm 0.00 in/hr0.0 mm/hr 0.00 in0.0 mm
03:51 AM 51.1°F10.6°C 43.8°F6.6°C 76% 0.4 mph NW0.6 kmh NW 4.3 mph6.9 kmh 30.26 in1024.7 mb 0.00 in0.0 mm 0.00 in/hr0.0 mm/hr 0.00 in0.0 mm
03:56 AM 50.6°F10.3°C 43.7°F6.5°C 77% 0.5 mph WNW0.8 kmh WNW 1.8 mph2.9 kmh 30.26 in1024.7 mb 0.00 in0.0 mm 0.00 in/hr0.0 mm/hr 0.00 in0.0 mm
04:01 AM 50.4°F10.2°C 43.7°F6.5°C 78% 0.4 mph WNW0.6 kmh WNW 1.8 mph2.9 kmh 30.26 in1024.7 mb 0.00 in0.0 mm 0.00 in/hr0.0 mm/hr 0.00 in0.0 mm
04:06 AM 50.0°F10.0°C 43.4°F6.3°C 78% 0.5 mph NW0.8 kmh NW 1.3 mph2.1 kmh 30.26 in1024.7 mb 0.00 in0.0 mm 0.00 in/hr0.0 mm/hr 0.00 in0.0 mm
04:11 AM 49.7°F9.8°C 43.0°F6.1°C 78% 0.4 mph NW0.6 kmh NW 1.3 mph2.1 kmh 30.26 in1024.7 mb 0.00 in0.0 mm 0.00 in/hr0.0 mm/hr 0.00 in0.0 mm
04:16 AM 49.5°F9.7°C 42.8°F6.0°C 78% 0.4 mph WNW0.6 kmh WNW 0.9 mph1.4 kmh 30.26 in1024.7 mb 0.00 in0.0 mm 0.00 in/hr0.0 mm/hr 0.00 in0.0 mm
04:21 AM 49.1°F9.5°C 42.8°F6.0°C 79% 0.5 mph NW0.8 kmh NW 1.8 mph2.9 kmh 30.26 in1024.7 mb 0.00 in0.0 mm 0.00 in/hr0.0 mm/hr 0.00 in0.0 mm
04:26 AM 48.8°F9.3°C 42.5°F5.8°C 79% 0.4 mph NW0.6 kmh NW 1.8 mph2.9 kmh 30.26 in1024.7 mb 0.00 in0.0 mm 0.00 in/hr0.0 mm/hr 0.00 in0.0 mm
04:31 AM 48.6°F9.2°C 42.7°F5.9°C 80% 0.4 mph WNW0.6 kmh WNW 1.1 mph1.8 kmh 30.26 in1024.7 mb 0.00 in0.0 mm 0.00 in/hr0.0 mm/hr 0.00 in0.0 mm
04:36 AM 48.4°F9.1°C 42.5°F5.8°C 80% 0.4 mph WNW0.6 kmh WNW 0.7 mph1.1 kmh 30.25 in1024.4 mb 0.00 in0.0 mm 0.00 in/hr0.0 mm/hr 0.00 in0.0 mm
04:41 AM 48.1°F8.9°C 42.1°F5.6°C 80% 0.6 mph W1.0 kmh W 2.0 mph3.2 kmh 30.25 in1024.4 mb 0.00 in0.0 mm 0.00 in/hr0.0 mm/hr 0.00 in0.0 mm
04:46 AM 47.9°F8.8°C 41.9°F5.5°C 80% 0.7 mph W1.1 kmh W 2.9 mph4.7 kmh 30.26 in1024.7 mb 0.00 in0.0 mm 0.00 in/hr0.0 mm/hr 0.00 in0.0 mm
04:51 AM 47.9°F8.8°C 42.3°F5.7°C 81% 0.6 mph W1.0 kmh W 2.9 mph4.7 kmh 30.26 in1024.7 mb 0.00 in0.0 mm 0.00 in/hr0.0 mm/hr 0.00 in0.0 mm
04:56 AM 47.9°F8.8°C 42.3°F5.7°C 81% 0.4 mph WNW0.6 kmh WNW 2.7 mph4.3 kmh 30.26 in1024.7 mb 0.00 in0.0 mm 0.00 in/hr0.0 mm/hr 0.00 in0.0 mm
05:01 AM 47.9°F8.8°C 42.3°F5.7°C 81% 0.4 mph WNW0.6 kmh WNW 1.3 mph2.1 kmh 30.25 in1024.4 mb 0.00 in0.0 mm 0.00 in/hr0.0 mm/hr 0.00 in0.0 mm
05:06 AM 47.9°F8.8°C 42.3°F5.7°C 81% 0.4 mph WNW0.6 kmh WNW 1.8 mph2.9 kmh 30.26 in1024.7 mb 0.00 in0.0 mm 0.00 in/hr0.0 mm/hr 0.00 in0.0 mm
05:11 AM 48.2°F9.0°C 43.3°F6.3°C 83% 0.7 mph W1.1 kmh W 2.7 mph4.3 kmh 30.26 in1024.7 mb 0.00 in0.0 mm 0.00 in/hr0.0 mm/hr 0.00 in0.0 mm
05:16 AM 48.8°F9.3°C 43.8°F6.6°C 83% 0.6 mph W1.0 kmh W 2.7 mph4.3 kmh 30.25 in1024.4 mb 0.00 in0.0 mm 0.00 in/hr0.0 mm/hr 0.00 in0.0 mm
05:21 AM 49.3°F9.6°C 44.7°F7.1°C 84% 0.6 mph W1.0 kmh W 2.7 mph4.3 kmh 30.25 in1024.4 mb 0.00 in0.0 mm 0.00 in/hr0.0 mm/hr 0.00 in0.0 mm
05:26 AM 50.0°F10.0°C 44.7°F7.1°C 82% 0.4 mph WNW0.6 kmh WNW 2.7 mph4.3 kmh 30.26 in1024.7 mb 0.00 in0.0 mm 0.00 in/hr0.0 mm/hr 0.00 in0.0 mm
05:31 AM 50.8°F10.4°C 45.5°F7.5°C 82% 0.4 mph WNW0.6 kmh WNW 2.2 mph3.5 kmh 30.26 in1024.7 mb 0.00 in0.0 mm 0.00 in/hr0.0 mm/hr 0.00 in0.0 mm
05:36 AM 51.3°F10.7°C 45.6°F7.6°C 81% 0.6 mph W1.0 kmh W 2.2 mph3.5 kmh 30.25 in1024.4 mb 0.00 in0.0 mm 0.00 in/hr0.0 mm/hr 0.00 in0.0 mm
05:41 AM 51.8°F11.0°C 45.9°F7.7°C 80% 0.4 mph WNW0.6 kmh WNW 2.7 mph4.3 kmh 30.25 in1024.4 mb 0.00 in0.0 mm 0.00 in/hr0.0 mm/hr 0.00 in0.0 mm
05:46 AM 52.2°F11.2°C 45.9°F7.7°C 79% 0.5 mph W0.8 kmh W 2.7 mph4.3 kmh 30.26 in1024.7 mb 0.00 in0.0 mm 0.00 in/hr0.0 mm/hr 0.00 in0.0 mm
05:51 AM 52.2°F11.2°C 45.9°F7.7°C 79% 0.6 mph WNW1.0 kmh WNW 2.0 mph3.2 kmh 30.26 in1024.7 mb 0.00 in0.0 mm 0.00 in/hr0.0 mm/hr 0.00 in0.0 mm
05:56 AM 52.7°F11.5°C 46.1°F7.8°C 78% 0.6 mph WNW1.0 kmh WNW 2.5 mph4.0 kmh 30.26 in1024.7 mb 0.00 in0.0 mm 0.00 in/hr0.0 mm/hr 0.00 in0.0 mm
06:01 AM 53.1°F11.7°C 46.4°F8.0°C 78% 0.8 mph WNW1.3 kmh WNW 3.1 mph5.0 kmh 30.26 in1024.7 mb 0.00 in0.0 mm 0.00 in/hr0.0 mm/hr 0.00 in0.0 mm
06:06 AM 53.3°F11.8°C 46.3°F7.9°C 77% 0.7 mph W1.1 kmh W 3.1 mph5.0 kmh 30.26 in1024.7 mb 0.00 in0.0 mm 0.00 in/hr0.0 mm/hr 0.00 in0.0 mm
06:11 AM 53.5°F11.9°C 46.1°F7.8°C 76% 0.7 mph W1.1 kmh W 3.8 mph6.1 kmh 30.26 in1024.7 mb 0.00 in0.0 mm 0.00 in/hr0.0 mm/hr 0.00 in0.0 mm
06:16 AM 53.6°F12.0°C 46.3°F7.9°C 76% 0.7 mph W1.1 kmh W 3.8 mph6.1 kmh 30.26 in1024.7 mb 0.00 in0.0 mm 0.00 in/hr0.0 mm/hr 0.00 in0.0 mm
06:21 AM 53.6°F12.0°C 45.9°F7.7°C 75% 0.7 mph WNW1.1 kmh WNW 3.6 mph5.8 kmh 30.26 in1024.7 mb 0.00 in0.0 mm 0.00 in/hr0.0 mm/hr 0.00 in0.0 mm
06:26 AM 53.6°F12.0°C 45.9°F7.7°C 75% 0.7 mph WNW1.1 kmh WNW 3.6 mph5.8 kmh 30.26 in1024.7 mb 0.00 in0.0 mm 0.00 in/hr0.0 mm/hr 0.00 in0.0 mm
06:31 AM 53.8°F12.1°C 46.1°F7.8°C 75% 0.6 mph WNW1.0 kmh WNW 3.6 mph5.8 kmh 30.26 in1024.7 mb 0.00 in0.0 mm 0.00 in/hr0.0 mm/hr 0.00 in0.0 mm
06:36 AM 54.0°F12.2°C 46.3°F7.9°C 75% 0.8 mph NW1.3 kmh NW 4.3 mph6.9 kmh 30.26 in1024.7 mb 0.00 in0.0 mm 0.00 in/hr0.0 mm/hr 0.00 in0.0 mm
06:42 AM 54.0°F12.2°C 46.3°F7.9°C 75% 0.7 mph WNW1.1 kmh WNW 4.3 mph6.9 kmh 30.27 in1025.1 mb 0.00 in0.0 mm 0.00 in/hr0.0 mm/hr 0.00 in0.0 mm
06:46 AM 54.0°F12.2°C 46.3°F7.9°C 75% 0.5 mph WNW0.8 kmh WNW 2.7 mph4.3 kmh 30.27 in1025.1 mb 0.00 in0.0 mm 0.00 in/hr0.0 mm/hr 0.00 in0.0 mm
06:52 AM 54.0°F12.2°C 45.9°F7.7°C 74% 0.4 mph WNW0.6 kmh WNW 2.7 mph4.3 kmh 30.27 in1025.1 mb 0.00 in0.0 mm 0.00 in/hr0.0 mm/hr 0.00 in0.0 mm
06:57 AM 53.6°F12.0°C 45.5°F7.5°C 74% 0.5 mph WNW0.8 kmh WNW 2.0 mph3.2 kmh 30.27 in1025.1 mb 0.00 in0.0 mm 0.00 in/hr0.0 mm/hr 0.00 in0.0 mm
07:02 AM 53.3°F11.8°C 45.5°F7.5°C 75% 0.4 mph WNW0.6 kmh WNW 2.5 mph4.0 kmh 30.27 in1025.1 mb 0.00 in0.0 mm 0.00 in/hr0.0 mm/hr 0.00 in0.0 mm
07:07 AM 53.3°F11.8°C 45.5°F7.5°C 75% 0.4 mph WNW0.6 kmh WNW 2.5 mph4.0 kmh 30.27 in1025.1 mb 0.00 in0.0 mm 0.00 in/hr0.0 mm/hr 0.00 in0.0 mm
07:12 AM 53.3°F11.8°C 45.5°F7.5°C 75% 0.5 mph W0.8 kmh W 2.5 mph4.0 kmh 30.26 in1024.7 mb 0.00 in0.0 mm 0.00 in/hr0.0 mm/hr 0.00 in0.0 mm
07:17 AM 53.1°F11.7°C 44.6°F7.0°C 73% 0.6 mph W1.0 kmh W 2.7 mph4.3 kmh 30.26 in1024.7 mb 0.00 in0.0 mm 0.00 in/hr0.0 mm/hr 0.00 in0.0 mm
07:22 AM 52.7°F11.5°C 44.4°F6.9°C 73% 0.7 mph W1.1 kmh W 2.9 mph4.7 kmh 30.26 in1024.7 mb 0.00 in0.0 mm 0.00 in/hr0.0 mm/hr 0.00 in0.0 mm
07:27 AM 52.6°F11.4°C 44.6°F7.0°C 74% 0.8 mph W1.3 kmh W 4.0 mph6.4 kmh 30.26 in1024.7 mb 0.00 in0.0 mm 0.00 in/hr0.0 mm/hr 0.00 in0.0 mm
07:32 AM 52.6°F11.4°C 44.6°F7.0°C 74% 0.7 mph W1.1 kmh W 4.0 mph6.4 kmh 30.26 in1024.7 mb 0.00 in0.0 mm 0.00 in/hr0.0 mm/hr 0.00 in0.0 mm
07:37 AM 52.7°F11.5°C 44.7°F7.1°C 74% 0.7 mph W1.1 kmh W 3.8 mph6.1 kmh 30.26 in1024.7 mb 0.00 in0.0 mm 0.00 in/hr0.0 mm/hr 0.00 in0.0 mm
07:42 AM 52.9°F11.6°C 44.8°F7.1°C 74% 0.6 mph WNW1.0 kmh WNW 3.4 mph5.5 kmh 30.26 in1024.7 mb 0.00 in0.0 mm 0.00 in/hr0.0 mm/hr 0.00 in0.0 mm
07:47 AM 53.3°F11.8°C 44.8°F7.1°C 73% 0.6 mph WNW1.0 kmh WNW 3.4 mph5.5 kmh 30.26 in1024.7 mb 0.00 in0.0 mm 0.00 in/hr0.0 mm/hr 0.00 in0.0 mm
07:52 AM 54.0°F12.2°C 45.6°F7.6°C 73% 0.6 mph NW1.0 kmh NW 3.6 mph5.8 kmh 30.26 in1024.7 mb 0.00 in0.0 mm 0.00 in/hr0.0 mm/hr 0.00 in0.0 mm
07:57 AM 54.4°F12.4°C 45.6°F7.6°C 72% 0.6 mph NW1.0 kmh NW 3.6 mph5.8 kmh 30.26 in1024.7 mb 0.00 in0.0 mm 0.00 in/hr0.0 mm/hr 0.00 in0.0 mm
08:02 AM 54.5°F12.5°C 45.7°F7.6°C 72% 0.7 mph W1.1 kmh W 2.9 mph4.7 kmh 30.27 in1025.1 mb 0.00 in0.0 mm 0.00 in/hr0.0 mm/hr 0.00 in0.0 mm
08:07 AM 54.5°F12.5°C 45.4°F7.4°C 71% 0.7 mph W1.1 kmh W 3.1 mph5.0 kmh 30.27 in1025.1 mb 0.00 in0.0 mm 0.00 in/hr0.0 mm/hr 0.00 in0.0 mm
08:12 AM 54.4°F12.4°C 45.2°F7.3°C 71% 0.7 mph WNW1.1 kmh WNW 4.7 mph7.6 kmh 30.27 in1025.1 mb 0.00 in0.0 mm 0.00 in/hr0.0 mm/hr 0.00 in0.0 mm
08:17 AM 54.4°F12.4°C 45.2°F7.3°C 71% 0.8 mph WNW1.3 kmh WNW 4.7 mph7.6 kmh 30.27 in1025.1 mb 0.00 in0.0 mm 0.00 in/hr0.0 mm/hr 0.00 in0.0 mm
08:22 AM 54.2°F12.3°C 45.0°F7.2°C 71% 0.6 mph WNW1.0 kmh WNW 3.6 mph5.8 kmh 30.27 in1025.1 mb 0.00 in0.0 mm 0.00 in/hr0.0 mm/hr 0.00 in0.0 mm
08:27 AM 54.2°F12.3°C 45.0°F7.2°C 71% 0.8 mph WNW1.3 kmh WNW 4.0 mph6.4 kmh 30.27 in1025.1 mb 0.00 in0.0 mm 0.00 in/hr0.0 mm/hr 0.00 in0.0 mm
08:32 AM 54.2°F12.3°C 45.4°F7.4°C 72% 0.5 mph NW0.8 kmh NW 4.0 mph6.4 kmh 30.27 in1025.1 mb 0.00 in0.0 mm 0.00 in/hr0.0 mm/hr 0.00 in0.0 mm
09:00 AM 54.7°F12.6°C 45.6°F7.6°C 71% 0.4 mph WNW0.6 kmh WNW 1.1 mph1.8 kmh 30.12 in1020.0 mb 0.00 in0.0 mm 0.00 in/hr0.0 mm/hr 0.00 in0.0 mm
09:30 AM 57.2°F14.0°C 46.9°F8.3°C 68% 0.4 mph WNW0.6 kmh WNW 1.1 mph1.8 kmh 30.12 in1020.0 mb 0.00 in0.0 mm 0.00 in/hr0.0 mm/hr 0.00 in0.0 mm
10:00 AM 60.1°F15.6°C 47.2°F8.4°C 62% 0.4 mph WNW0.6 kmh WNW 2.2 mph3.5 kmh 30.12 in1020.0 mb 0.00 in0.0 mm 0.00 in/hr0.0 mm/hr 0.00 in0.0 mm
10:30 AM 62.3°F16.8°C 46.8°F8.2°C 57% 0.5 mph NW0.8 kmh NW 3.1 mph5.0 kmh 30.29 in1025.7 mb 0.00 in0.0 mm 0.00 in/hr0.0 mm/hr 0.00 in0.0 mm
11:00 AM 64.1°F17.8°C 47.4°F8.6°C 55% 0.5 mph NW0.8 kmh NW 2.7 mph4.3 kmh 30.29 in1025.7 mb 0.00 in0.0 mm 0.00 in/hr0.0 mm/hr 0.00 in0.0 mm
11:30 AM 54.4°F12.4°C 36.6°F2.6°C 51% 0.5 mph WNW0.8 kmh WNW 3.4 mph5.5 kmh 30.29 in1025.7 mb 0.00 in0.0 mm 0.00 in/hr0.0 mm/hr 0.00 in0.0 mm
12:00 PM 54.4°F12.4°C 35.1°F1.7°C 48% 0.5 mph NW0.8 kmh NW 4.7 mph7.6 kmh 30.29 in1025.7 mb 0.00 in0.0 mm 0.00 in/hr0.0 mm/hr 0.00 in0.0 mm
12:30 PM 54.4°F12.4°C 34.5°F1.4°C 47% 0.5 mph WNW0.8 kmh WNW 4.7 mph7.6 kmh 30.28 in1025.4 mb 0.00 in0.0 mm 0.00 in/hr0.0 mm/hr 0.00 in0.0 mm
01:00 PM 72.4°F22.4°C 49.7°F9.8°C 45% 0.4 mph WNW0.6 kmh WNW 3.1 mph5.0 kmh 30.25 in1024.4 mb 0.00 in0.0 mm 0.00 in/hr0.0 mm/hr 0.00 in0.0 mm
01:30 PM 74.9°F23.8°C 60.3°F15.7°C 60% 0.5 mph WNW0.8 kmh WNW 4.3 mph6.9 kmh 30.24 in1024.0 mb 0.00 in0.0 mm 0.00 in/hr0.0 mm/hr 0.00 in0.0 mm
02:00 PM 76.7°F24.8°C 62.0°F16.7°C 60% 0.5 mph NW0.8 kmh NW 5.4 mph8.7 kmh 30.12 in1020.0 mb 0.00 in0.0 mm 0.00 in/hr0.0 mm/hr 0.00 in0.0 mm
02:30 PM 78.5°F25.8°C 63.7°F17.6°C 60% 0.5 mph NW0.8 kmh NW 4.3 mph6.9 kmh 30.12 in1020.0 mb 0.00 in0.0 mm 0.00 in/hr0.0 mm/hr 0.00 in0.0 mm
03:00 PM 77.8°F25.4°C 50.0°F10.0°C 38% 0.5 mph NW0.8 kmh NW 4.7 mph7.6 kmh 30.18 in1022.0 mb 0.00 in0.0 mm 0.00 in/hr0.0 mm/hr 0.00 in0.0 mm
03:30 PM 78.8°F26.0°C 50.9°F10.5°C 38% 0.4 mph WNW0.6 kmh WNW 3.6 mph5.8 kmh 30.17 in1021.7 mb 0.00 in0.0 mm 0.00 in/hr0.0 mm/hr 0.00 in0.0 mm
04:00 PM 77.2°F25.1°C 49.6°F9.8°C 38% 0.5 mph NW0.8 kmh NW 4.7 mph7.6 kmh 30.16 in1021.3 mb 0.00 in0.0 mm 0.00 in/hr0.0 mm/hr 0.00 in0.0 mm
04:31 PM 80.6°F27.0°C 48.8°F9.3°C 33% 0.5 mph NW0.8 kmh NW 2.7 mph4.3 kmh 30.15 in1021.0 mb 0.00 in0.0 mm 0.00 in/hr0.0 mm/hr 0.00 in0.0 mm
05:00 PM 82.1°F27.8°C 46.5°F8.1°C 29% 0.4 mph WNW0.6 kmh WNW 2.0 mph3.2 kmh 30.13 in1020.3 mb 0.00 in0.0 mm 0.00 in/hr0.0 mm/hr 0.00 in0.0 mm
05:30 PM 81.9°F27.7°C 44.3°F6.8°C 27% 0.4 mph WNW0.6 kmh WNW 1.3 mph2.1 kmh 30.12 in1020.0 mb 0.00 in0.0 mm 0.00 in/hr0.0 mm/hr 0.00 in0.0 mm
06:00 PM 79.7°F26.5°C 43.6°F6.4°C 28% 0.5 mph NW0.8 kmh NW 3.6 mph5.8 kmh 30.11 in1019.6 mb 0.00 in0.0 mm 0.00 in/hr0.0 mm/hr 0.00 in0.0 mm
06:31 PM 75.4°F24.1°C 44.9°F7.2°C 34% 0.5 mph WNW0.8 kmh WNW 4.9 mph7.9 kmh 30.11 in1019.6 mb 0.00 in0.0 mm 0.00 in/hr0.0 mm/hr 0.00 in0.0 mm
07:00 PM 72.0°F22.2°C 44.2°F6.8°C 37% 0.4 mph WNW0.6 kmh WNW 3.4 mph5.5 kmh 30.10 in1019.3 mb 0.00 in0.0 mm 0.00 in/hr0.0 mm/hr 0.00 in0.0 mm
07:30 PM 69.1°F20.6°C 43.8°F6.6°C 40% 0.4 mph WNW0.6 kmh WNW 1.8 mph2.9 kmh 30.09 in1019.0 mb 0.00 in0.0 mm 0.00 in/hr0.0 mm/hr 0.00 in0.0 mm
08:00 PM 67.0°F19.4°C 43.0°F6.1°C 42% 0.4 mph WNW0.6 kmh WNW 0.7 mph1.1 kmh 30.09 in1019.0 mb 0.00 in0.0 mm 0.00 in/hr0.0 mm/hr 0.00 in0.0 mm
08:31 PM 65.7°F18.7°C 43.7°F6.5°C 45% 0.4 mph WNW0.6 kmh WNW 0.9 mph1.4 kmh 30.09 in1019.0 mb 0.00 in0.0 mm 0.00 in/hr0.0 mm/hr 0.00 in0.0 mm
09:00 PM 65.0°F18.3°C 44.2°F6.8°C 47% 0.4 mph WNW0.6 kmh WNW 2.0 mph3.2 kmh 30.09 in1019.0 mb 0.00 in0.0 mm 0.00 in/hr0.0 mm/hr 0.00 in0.0 mm
09:30 PM 65.5°F18.6°C 44.1°F6.7°C 46% 0.4 mph WNW0.6 kmh WNW 8.1 mph13.0 kmh 30.10 in1019.3 mb 0.00 in0.0 mm 0.00 in/hr0.0 mm/hr 0.00 in0.0 mm
10:00 PM 65.3°F18.5°C 44.5°F6.9°C 47% 0.4 mph WNW0.6 kmh WNW 5.6 mph9.0 kmh 30.09 in1019.0 mb 0.00 in0.0 mm 0.00 in/hr0.0 mm/hr 0.00 in0.0 mm
10:30 PM 64.6°F18.1°C 44.4°F6.9°C 48% 0.4 mph WNW0.6 kmh WNW 6.0 mph9.7 kmh 30.08 in1018.6 mb 0.00 in0.0 mm 0.00 in/hr0.0 mm/hr 0.00 in0.0 mm
11:00 PM 65.2°F18.4°C 44.4°F6.9°C 47% 0.5 mph WNW0.8 kmh WNW 6.3 mph10.1 kmh 30.08 in1018.6 mb 0.00 in0.0 mm 0.00 in/hr0.0 mm/hr 0.00 in0.0 mm
11:30 PM 64.6°F18.1°C 43.8°F6.6°C 47% 0.4 mph WNW0.6 kmh WNW 2.7 mph4.3 kmh 30.08 in1018.6 mb 0.00 in0.0 mm 0.00 in/hr0.0 mm/hr 0.00 in0.0 mm